createdAt,value
2022-09-21T00:01:10.595Z,77.69
2022-09-21T00:04:19.008Z,77.45
2022-09-21T00:07:24.465Z,77.94
2022-09-21T00:10:31.080Z,77.20
2022-09-21T00:13:38.129Z,77.16
2022-09-21T00:16:46.043Z,77.48
2022-09-21T00:19:54.280Z,77.02
2022-09-21T00:22:59.867Z,77.35
2022-09-21T00:26:12.347Z,77.37
2022-09-21T00:29:18.111Z,76.70
2022-09-21T00:32:25.344Z,76.75
2022-09-21T00:35:33.756Z,77.13
2022-09-21T00:38:40.747Z,76.98
2022-09-21T00:41:46.381Z,77.38
2022-09-21T00:44:52.984Z,77.44
2022-09-21T00:48:06.619Z,77.41
2022-09-21T00:51:15.986Z,77.61
2022-09-21T00:54:30.139Z,78.11
2022-09-21T00:57:38.821Z,77.62
2022-09-21T01:00:47.544Z,78.39
2022-09-21T01:03:57.486Z,78.30
2022-09-21T01:07:15.972Z,78.15
2022-09-21T01:10:23.974Z,78.05
2022-09-21T01:13:50.507Z,78.10
2022-09-21T01:17:09.905Z,78.02
2022-09-21T01:21:16.153Z,78.11
2022-09-21T01:25:11.033Z,77.79
2022-09-21T01:28:39.493Z,78.06
2022-09-21T01:31:59.098Z,77.59
2022-09-21T01:35:13.764Z,77.92
2022-09-21T01:38:28.063Z,77.87
2022-09-21T01:41:38.329Z,78.19
2022-09-21T01:44:48.963Z,77.76
2022-09-21T01:48:03.573Z,77.62
2022-09-21T01:51:17.911Z,78.32
2022-09-21T01:54:34.026Z,77.81
2022-09-21T01:57:50.310Z,77.68
2022-09-21T02:01:01.143Z,77.75
2022-09-21T02:04:15.970Z,77.59
2022-09-21T02:07:22.792Z,78.01
2022-09-21T02:10:39.348Z,77.81
2022-09-21T02:13:54.545Z,77.75
2022-09-21T02:17:20.836Z,77.89
2022-09-21T02:20:36.756Z,77.70
2022-09-21T02:23:52.941Z,77.63
2022-09-21T02:27:08.932Z,77.40
2022-09-21T02:30:21.969Z,77.38
2022-09-21T02:33:37.529Z,77.55
2022-09-21T02:36:57.132Z,77.13
2022-09-21T02:40:20.396Z,76.81
2022-09-21T02:43:37.921Z,77.16
2022-09-21T02:46:56.409Z,77.70
2022-09-21T02:50:12.312Z,77.66
2022-09-21T02:53:29.688Z,77.20
2022-09-21T02:56:36.138Z,77.25
2022-09-21T02:59:42.459Z,77.17
2022-09-21T03:02:49.255Z,77.18
2022-09-21T03:05:59.090Z,77.50
2022-09-21T03:09:07.556Z,76.84
2022-09-21T03:12:14.052Z,76.72
2022-09-21T03:15:20.154Z,76.93
2022-09-21T03:18:25.747Z,76.72
2022-09-21T03:21:31.373Z,76.99
2022-09-21T03:24:48.706Z,76.64
2022-09-21T03:27:54.322Z,76.47
2022-09-21T03:31:01.296Z,76.79
2022-09-21T03:34:06.748Z,76.76
2022-09-21T03:37:14.223Z,76.41
2022-09-21T03:40:26.519Z,77.11
2022-09-21T03:43:32.152Z,76.50
2022-09-21T03:46:38.128Z,76.49
2022-09-21T03:49:43.625Z,77.15
2022-09-21T03:52:49.541Z,77.07
2022-09-21T03:55:59.149Z,77.42
2022-09-21T03:59:11.792Z,76.92
2022-09-21T04:02:19.982Z,77.27
2022-09-21T04:05:26.113Z,77.49
2022-09-21T04:08:33.879Z,77.76
2022-09-21T04:11:42.167Z,77.26
2022-09-21T04:14:47.694Z,77.50
2022-09-21T04:17:55.989Z,76.95
2022-09-21T04:21:01.767Z,77.31
2022-09-21T04:24:08.758Z,77.35
2022-09-21T04:27:17.692Z,76.90
2022-09-21T04:30:26.317Z,76.84
2022-09-21T04:33:31.983Z,76.74
2022-09-21T04:36:37.554Z,76.73
2022-09-21T04:39:43.507Z,76.71
2022-09-21T04:43:01.585Z,76.85
2022-09-21T04:46:12.792Z,77.64
2022-09-21T04:49:18.291Z,78.08
2022-09-21T04:52:24.071Z,77.68
2022-09-21T04:55:29.607Z,77.74
2022-09-21T04:58:40.037Z,77.91
2022-09-21T05:01:45.843Z,77.66
2022-09-21T05:04:51.414Z,77.78
2022-09-21T05:07:56.921Z,77.24
2022-09-21T05:10:59.868Z,77.53
2022-09-21T05:14:12.438Z,77.85
2022-09-21T05:17:17.945Z,77.76
2022-09-21T05:20:26.191Z,78.13
2022-09-21T05:23:34.838Z,78.44
2022-09-21T05:26:40.733Z,79.17
2022-09-21T05:29:50.006Z,79.25
2022-09-21T05:33:06.633Z,78.69
2022-09-21T05:36:42.419Z,78.68
2022-09-21T05:39:48.879Z,78.68
2022-09-21T05:43:18.337Z,78.25
2022-09-21T05:46:42.371Z,78.51
2022-09-21T05:50:19.771Z,78.32
2022-09-21T05:53:52.374Z,78.19
2022-09-21T05:57:15.233Z,77.85
2022-09-21T06:00:25.163Z,78.51
2022-09-21T06:03:42.454Z,77.84
2022-09-21T06:06:48.097Z,77.24
2022-09-21T06:09:54.585Z,77.63
2022-09-21T06:13:00.425Z,77.97
2022-09-21T06:16:07.701Z,77.91
2022-09-21T06:19:17.527Z,77.12
2022-09-21T06:22:23.130Z,77.72
2022-09-21T06:25:28.636Z,78.07
2022-09-21T06:28:35.869Z,77.64
2022-09-21T06:31:41.353Z,77.83
2022-09-21T06:34:50.103Z,77.18
2022-09-21T06:37:55.663Z,77.37
2022-09-21T06:41:06.687Z,77.16
2022-09-21T06:44:12.152Z,77.42
2022-09-21T06:47:17.901Z,77.70
2022-09-21T06:50:26.902Z,77.18
2022-09-21T06:53:36.213Z,77.54
2022-09-21T06:56:43.401Z,77.44
2022-09-21T06:59:49.013Z,77.20
2022-09-21T07:02:55.816Z,77.33
2022-09-21T07:06:06.221Z,77.79
2022-09-21T07:12:37.997Z,76.75
2022-09-21T07:15:43.525Z,76.98
2022-09-21T07:18:49.139Z,77.14
2022-09-21T07:21:59.291Z,76.58
2022-09-21T07:25:05.713Z,76.50
2022-09-21T07:28:16.516Z,76.89
2022-09-21T07:31:22.019Z,76.60
2022-09-21T07:34:28.655Z,76.63
2022-09-21T07:37:37.111Z,76.42
2022-09-21T07:40:43.322Z,76.37
2022-09-21T07:43:49.203Z,75.56
2022-09-21T07:46:54.860Z,75.80
2022-09-21T07:50:08.555Z,75.40
2022-09-21T07:53:25.388Z,75.86
2022-09-21T07:56:33.247Z,75.44
2022-09-21T07:59:36.255Z,74.70
2022-09-21T08:02:47.444Z,75.25
2022-09-21T08:05:56.092Z,75.50
2022-09-21T08:09:06.347Z,75.24
2022-09-21T08:12:13.691Z,75.65
2022-09-21T08:15:44.093Z,74.23
2022-09-21T08:18:46.323Z,74.47
2022-09-21T08:21:56.912Z,74.28
2022-09-21T08:25:06.115Z,74.50
2022-09-21T08:28:11.680Z,73.37
2022-09-21T08:31:17.256Z,73.70
2022-09-21T08:34:24.261Z,73.38
2022-09-21T08:37:29.823Z,73.49
2022-09-21T08:40:38.774Z,73.61
2022-09-21T08:43:48.864Z,73.95
2022-09-21T08:47:07.904Z,73.43
2022-09-21T08:50:40.351Z,73.18
2022-09-21T08:53:51.912Z,73.09
2022-09-21T08:57:06.213Z,73.50
2022-09-21T09:00:23.257Z,73.60
2022-09-21T09:03:57.865Z,73.40
2022-09-21T09:07:44.556Z,73.21
2022-09-21T09:11:17.177Z,73.40
2022-09-21T09:15:14.464Z,72.42
2022-09-21T09:18:40.255Z,70.82
2022-09-21T09:21:50.576Z,71.23
2022-09-21T09:25:04.419Z,69.93
2022-09-21T09:28:29.926Z,69.64
2022-09-21T09:31:40.799Z,68.68
2022-09-21T09:34:58.072Z,69.17
2022-09-21T09:38:16.337Z,68.29
2022-09-21T09:42:03.817Z,67.84
2022-09-21T09:45:41.294Z,68.04
2022-09-21T09:49:20.401Z,67.95
2022-09-21T09:52:26.122Z,67.54
2022-09-21T09:55:42.618Z,67.65
2022-09-21T09:58:56.212Z,67.26
2022-09-21T10:02:06.029Z,67.03
2022-09-21T10:05:26.098Z,66.13
2022-09-21T10:08:47.981Z,66.90
2022-09-21T10:11:55.884Z,67.01
2022-09-21T10:15:04.024Z,66.23
2022-09-21T10:18:23.562Z,66.46
2022-09-21T10:21:45.132Z,66.33
2022-09-21T10:24:59.261Z,64.93
2022-09-21T10:28:07.345Z,64.19
2022-09-21T10:31:25.237Z,61.76
2022-09-21T10:34:39.848Z,61.50
2022-09-21T10:37:54.639Z,60.20
2022-09-21T10:41:01.145Z,59.50
2022-09-21T10:44:07.213Z,56.07
2022-09-21T10:47:26.700Z,54.34
2022-09-21T10:50:40.144Z,53.26
2022-09-21T10:54:01.943Z,52.96
2022-09-21T10:57:17.947Z,53.00
2022-09-21T11:00:46.378Z,53.37
2022-09-21T11:04:03.464Z,52.22
2022-09-21T11:07:31.326Z,52.79
2022-09-21T11:10:56.208Z,53.50
2022-09-21T11:14:19.374Z,55.34
2022-09-21T11:17:42.157Z,56.01
2022-09-21T11:20:58.340Z,56.88
2022-09-21T11:24:28.428Z,57.11
2022-09-21T11:27:44.672Z,55.46
2022-09-21T11:31:32.894Z,54.74
2022-09-21T11:35:05.554Z,52.58
2022-09-21T11:38:21.758Z,51.72
2022-09-21T11:41:56.460Z,50.32
2022-09-21T11:45:16.704Z,51.08
2022-09-21T11:48:40.456Z,50.57
2022-09-21T11:52:18.912Z,49.87
2022-09-21T11:56:00.658Z,48.99
2022-09-21T11:59:55.689Z,49.67
2022-09-21T12:04:07.638Z,50.80
2022-09-21T12:08:05.855Z,51.81
2022-09-21T12:11:33.493Z,51.85
2022-09-21T12:14:54.644Z,51.59
2022-09-21T12:18:14.096Z,51.50
2022-09-21T12:21:30.788Z,52.80
2022-09-21T12:24:46.296Z,52.76
2022-09-21T12:28:01.077Z,53.99
2022-09-21T12:31:15.294Z,55.10
2022-09-21T12:34:33.869Z,54.56
2022-09-21T12:37:51.951Z,55.32
2022-09-21T12:41:19.197Z,54.97
2022-09-21T12:44:52.236Z,54.97
2022-09-21T12:48:11.784Z,52.62
2022-09-21T12:51:26.016Z,52.31
2022-09-21T12:54:50.259Z,51.26
2022-09-21T12:58:15.528Z,52.02
2022-09-21T13:01:36.608Z,52.18
2022-09-21T13:05:07.948Z,50.53
2022-09-21T13:08:36.899Z,52.06
2022-09-21T13:12:00.538Z,52.50
2022-09-21T13:15:26.396Z,53.92
2022-09-21T13:18:36.890Z,53.77
2022-09-21T13:21:50.918Z,54.30
2022-09-21T13:25:09.672Z,53.64
2022-09-21T13:28:25.002Z,52.51
2022-09-21T13:32:08.951Z,51.53
2022-09-21T13:36:17.041Z,52.11
2022-09-21T13:39:22.950Z,52.04
2022-09-21T13:42:50.267Z,52.81
2022-09-21T13:46:01.749Z,52.81
2022-09-21T13:49:23.857Z,52.61
2022-09-21T13:52:43.200Z,52.11
2022-09-21T13:55:56.759Z,53.13
2022-09-21T13:59:09.947Z,53.48
2022-09-21T14:02:36.508Z,52.78
2022-09-21T14:05:48.226Z,52.02
2022-09-21T14:09:06.035Z,52.54
2022-09-21T14:12:28.114Z,52.60
2022-09-21T14:15:43.606Z,53.36
2022-09-21T14:18:51.882Z,55.48
2022-09-21T14:22:53.825Z,58.87
2022-09-21T14:26:14.940Z,59.66
2022-09-21T14:29:49.095Z,58.71
2022-09-21T14:33:11.358Z,58.58
2022-09-21T14:36:31.207Z,59.02
2022-09-21T14:39:44.612Z,58.24
2022-09-21T14:42:51.620Z,57.27
2022-09-21T14:46:27.775Z,57.97
2022-09-21T14:50:07.452Z,57.97
2022-09-21T14:53:56.401Z,56.77
2022-09-21T14:57:37.833Z,57.62
2022-09-21T15:00:48.927Z,57.79
2022-09-21T15:04:36.106Z,57.23
2022-09-21T15:08:04.859Z,56.49
2022-09-21T15:11:31.374Z,57.43
2022-09-21T15:14:44.321Z,57.76
2022-09-21T15:17:59.861Z,59.10
2022-09-21T15:21:26.556Z,60.11
2022-09-21T15:24:36.527Z,60.88
2022-09-21T15:27:48.690Z,62.72
2022-09-21T15:30:54.396Z,64.00
2022-09-21T15:34:00.748Z,64.83
2022-09-21T15:37:19.938Z,66.08
2022-09-21T15:40:34.435Z,66.69
2022-09-21T15:43:48.242Z,67.20
2022-09-21T15:47:03.342Z,68.34
2022-09-21T15:50:23.774Z,68.72
2022-09-21T15:53:37.262Z,68.60
2022-09-21T15:56:48.106Z,68.71
2022-09-21T15:59:56.882Z,68.80
2022-09-21T16:03:10.020Z,68.12
2022-09-21T16:06:29.440Z,67.76
2022-09-21T16:09:45.843Z,67.32
2022-09-21T16:12:51.500Z,67.54
2022-09-21T16:16:07.114Z,67.81
2022-09-21T16:19:20.002Z,67.28
2022-09-21T16:22:32.840Z,67.29
2022-09-21T16:25:41.066Z,67.53
2022-09-21T16:28:46.834Z,67.38
2022-09-21T16:32:15.766Z,67.31
2022-09-21T16:35:31.825Z,67.57
2022-09-21T16:38:37.388Z,68.14
2022-09-21T16:41:51.098Z,68.15
2022-09-21T16:44:58.429Z,68.92
2022-09-21T16:48:08.594Z,69.31
2022-09-21T16:51:22.548Z,69.39
2022-09-21T16:54:32.250Z,69.63
2022-09-21T16:57:38.263Z,70.21
2022-09-21T17:00:47.460Z,70.34
2022-09-21T17:03:56.984Z,70.83
2022-09-21T17:07:11.058Z,71.33
2022-09-21T17:10:35.162Z,71.75
2022-09-21T17:13:40.868Z,71.62
2022-09-21T17:16:50.504Z,71.47
2022-09-21T17:19:58.618Z,71.68
2022-09-21T17:23:04.931Z,72.17
2022-09-21T17:26:21.421Z,72.60
2022-09-21T17:29:31.060Z,72.49
2022-09-21T17:32:38.841Z,72.80
2022-09-21T17:35:47.304Z,73.16
2022-09-21T17:38:52.866Z,72.89
2022-09-21T17:42:07.778Z,73.59
2022-09-21T17:45:32.794Z,73.24
2022-09-21T17:48:43.337Z,73.71
2022-09-21T17:52:06.476Z,73.41
2022-09-21T17:55:21.532Z,73.99
2022-09-21T17:58:50.461Z,74.40
2022-09-21T18:01:59.777Z,74.65
2022-09-21T18:05:23.394Z,74.63
2022-09-21T18:08:34.268Z,75.05
2022-09-21T18:12:05.094Z,75.69
2022-09-21T18:15:25.327Z,75.33
2022-09-21T18:18:49.441Z,75.93
2022-09-21T18:22:14.296Z,75.79
2022-09-21T18:25:34.497Z,76.14
2022-09-21T18:28:44.269Z,76.10
2022-09-21T18:32:10.314Z,76.31
2022-09-21T18:36:06.193Z,76.06
2022-09-21T18:39:37.454Z,76.05
2022-09-21T18:43:00.028Z,76.07
2022-09-21T18:46:15.041Z,76.17
2022-09-21T18:49:51.228Z,76.65
2022-09-21T18:53:09.623Z,76.13
2022-09-21T18:56:19.187Z,76.42
2022-09-21T18:59:31.729Z,76.32
2022-09-21T19:02:58.989Z,76.31
2022-09-21T19:06:48.893Z,75.79
2022-09-21T19:10:15.327Z,76.13
2022-09-21T19:14:02.681Z,75.86
2022-09-21T19:17:37.894Z,75.94
2022-09-21T19:21:27.091Z,75.69
2022-09-21T19:25:13.730Z,75.28
2022-09-21T19:29:08.158Z,74.71
2022-09-21T19:32:21.308Z,74.68
2022-09-21T19:35:39.221Z,74.70
2022-09-21T19:38:59.178Z,74.44
2022-09-21T19:42:30.527Z,74.37
2022-09-21T19:45:54.775Z,74.17
2022-09-21T19:49:18.599Z,74.81
2022-09-21T19:52:33.218Z,74.89
2022-09-21T19:55:55.397Z,75.03
2022-09-21T19:59:14.843Z,75.08
2022-09-21T20:02:32.778Z,75.24
2022-09-21T20:05:58.335Z,75.14
2022-09-21T20:09:18.312Z,75.54
2022-09-21T20:12:36.807Z,75.28
2022-09-21T20:15:52.693Z,75.28
2022-09-21T20:19:09.569Z,75.09
2022-09-21T20:22:21.140Z,75.09
2022-09-21T20:25:35.182Z,75.18
2022-09-21T20:28:41.782Z,74.70
2022-09-21T20:31:48.857Z,74.81
2022-09-21T20:34:54.281Z,74.58
2022-09-21T20:38:03.322Z,74.71
2022-09-21T20:41:15.726Z,75.22
2022-09-21T20:44:22.175Z,74.51
2022-09-21T20:47:29.292Z,74.66
2022-09-21T20:50:36.667Z,74.76
2022-09-21T20:53:45.898Z,74.36
2022-09-21T20:56:52.301Z,74.25
2022-09-21T20:59:57.897Z,74.54
2022-09-21T21:03:04.637Z,73.90
2022-09-21T21:06:13.660Z,74.17
2022-09-21T21:09:21.915Z,74.36
2022-09-21T21:12:27.697Z,74.51
2022-09-21T21:15:36.615Z,74.04
2022-09-21T21:18:43.069Z,74.16
2022-09-21T21:21:48.737Z,73.85
2022-09-21T21:24:56.899Z,73.81
2022-09-21T21:28:07.022Z,73.58
2022-09-21T21:31:12.815Z,73.55
2022-09-21T21:34:34.109Z,73.76
2022-09-21T21:37:47.978Z,74.31
2022-09-21T21:41:01.037Z,74.61
2022-09-21T21:44:06.592Z,75.03
2022-09-21T21:50:38.317Z,75.50
2022-09-21T21:53:43.953Z,75.51
2022-09-21T21:56:52.447Z,75.27
2022-09-21T21:59:57.949Z,75.53
2022-09-21T22:03:05.143Z,75.64
2022-09-21T22:06:12.975Z,75.63
2022-09-21T22:09:22.357Z,75.65
2022-09-21T22:12:30.431Z,75.46
2022-09-21T22:15:39.105Z,75.28
2022-09-21T22:18:49.207Z,74.58
2022-09-21T22:21:55.165Z,74.94
2022-09-21T22:25:00.711Z,75.15
2022-09-21T22:28:09.229Z,75.24
2022-09-21T22:31:19.381Z,75.74
2022-09-21T22:34:24.920Z,75.25
2022-09-21T22:37:30.386Z,75.25
2022-09-21T22:40:35.992Z,75.64
2022-09-21T22:43:44.716Z,75.76
2022-09-21T22:46:50.248Z,75.78
2022-09-21T22:49:56.535Z,75.88
2022-09-21T22:53:02.288Z,76.30
2022-09-21T22:56:11.845Z,76.40
2022-09-21T22:59:19.975Z,76.94
2022-09-21T23:02:25.646Z,77.11
2022-09-21T23:05:31.534Z,77.80
2022-09-21T23:08:39.159Z,77.72
2022-09-21T23:11:48.209Z,77.53
2022-09-21T23:14:57.319Z,77.57
2022-09-21T23:18:09.149Z,78.17
2022-09-21T23:21:23.132Z,78.31
2022-09-21T23:24:28.683Z,77.92
2022-09-21T23:27:34.693Z,78.53
2022-09-21T23:30:43.132Z,78.77
2022-09-21T23:33:52.482Z,78.75
2022-09-21T23:36:58.098Z,78.87
2022-09-21T23:40:04.190Z,78.69
2022-09-21T23:43:11.978Z,78.68
2022-09-21T23:46:29.718Z,78.86
2022-09-21T23:49:35.223Z,79.24
2022-09-21T23:52:42.955Z,79.50
2022-09-21T23:55:48.509Z,79.27
2022-09-21T23:58:55.619Z,79.68
